Time;durP1;ratioP1;P1;durP2;ratioP2;P2;SDS_P1;SDS_P2;PMS_P1;PMS_P2;Temp;Humidity;BMP_temperature;BMP_pressure;BME280_temperature;BME280_humidity;BME280_pressure;Samples;Min_cycle;Max_cycle;Signal;HPM_P1;HPM_P2
2022/03/27 00:01:31;;;;;;;16.10;11.13;;;;;;;6.30;53.29;100493.38;4919647;29;20283;-78
2022/03/27 00:03:58;;;;;;;16.23;11.33;;;;;;;6.31;53.51;100487.06;4911939;29;20781;-78
2022/03/27 00:06:25;;;;;;;16.27;11.70;;;;;;;6.27;53.90;100491.06;4913194;29;20577;-78
2022/03/27 00:08:52;;;;;;;16.30;11.13;;;;;;;6.23;53.99;100489.75;4917877;29;20321;-78
2022/03/27 00:11:25;;;;;;;17.20;11.60;;;;;;;6.22;54.06;100482.75;4912671;29;20329;-78
2022/03/27 00:13:52;;;;;;;16.47;11.40;;;;;;;6.16;54.92;100489.59;4911848;29;21036;-78
2022/03/27 00:16:19;;;;;;;17.93;12.03;;;;;;;6.15;54.84;100497.75;4912547;29;20319;-78
2022/03/27 00:18:47;;;;;;;19.43;12.67;;;;;;;6.18;54.75;100490.28;4910378;29;20239;-78
2022/03/27 00:21:14;;;;;;;18.13;11.93;;;;;;;6.15;55.55;100490.63;4912419;29;20664;-78
2022/03/27 00:23:43;;;;;;;15.87;11.93;;;;;;;6.10;56.10;100495.63;4909828;29;20318;-78
2022/03/27 00:26:10;;;;;;;17.73;11.83;;;;;;;6.08;56.52;100494.09;4915900;29;20242;-78
2022/03/27 00:28:37;;;;;;;14.70;11.50;;;;;;;6.06;56.84;100491.63;4912997;29;20241;-79
2022/03/27 00:31:07;;;;;;;21.03;12.90;;;;;;;6.04;57.59;100487.47;4909970;29;20233;-78
2022/03/27 00:33:35;;;;;;;18.43;12.40;;;;;;;5.98;57.95;100486.31;4915755;29;20258;-78
2022/03/27 00:36:04;;;;;;;16.37;12.60;;;;;;;5.96;58.04;100491.00;4907757;29;20273;-77
2022/03/27 00:38:32;;;;;;;16.93;13.27;;;;;;;5.96;58.19;100492.81;4908011;29;20238;-78
2022/03/27 00:40:59;;;;;;;19.60;13.97;;;;;;;5.95;58.75;100497.28;4914134;29;20240;-78
2022/03/27 00:43:27;;;;;;;18.70;13.07;;;;;;;5.96;58.76;100501.63;4914557;29;20234;-78
2022/03/27 00:45:54;;;;;;;15.87;12.63;;;;;;;5.91;59.41;100497.81;4912400;29;20623;-78
2022/03/27 00:48:21;;;;;;;21.20;14.40;;;;;;;5.94;59.61;100497.47;4911591;29;20293;-78
2022/03/27 00:50:50;;;;;;;23.37;13.87;;;;;;;5.92;60.33;100499.47;4909588;29;20777;-78
2022/03/27 00:53:17;;;;;;;19.63;14.23;;;;;;;5.92;60.16;100507.44;4910768;29;20245;-78
2022/03/27 00:55:45;;;;;;;17.23;13.10;;;;;;;5.88;60.20;100498.97;4908996;29;20322;-78
2022/03/27 00:58:12;;;;;;;20.20;14.10;;;;;;;5.86;61.06;100492.97;4914621;29;20264;-78
2022/03/27 01:00:42;;;;;;;20.00;14.20;;;;;;;5.85;60.96;100495.78;4910492;29;20280;-78
2022/03/27 01:03:15;;;;;;;17.77;13.70;;;;;;;5.84;61.22;100494.94;4904630;29;20261;-78
2022/03/27 01:05:43;;;;;;;19.60;13.63;;;;;;;5.82;61.49;100498.78;4908682;29;20648;-78
2022/03/27 01:08:11;;;;;;;19.43;13.70;;;;;;;5.83;61.14;100497.78;4909536;29;20242;-78
2022/03/27 01:10:39;;;;;;;19.77;15.30;;;;;;;5.81;61.42;100500.59;4912686;29;20249;-78
2022/03/27 01:13:16;;;;;;;22.67;14.33;;;;;;;5.82;62.15;100494.31;4916184;29;20240;-78
2022/03/27 01:15:47;;;;;;;18.50;13.83;;;;;;;5.82;62.06;100498.78;4909810;29;20234;-78
2022/03/27 01:18:13;;;;;;;18.97;13.80;;;;;;;5.78;62.25;100495.63;4906627;29;20237;-78
2022/03/27 01:20:41;;;;;;;21.10;13.90;;;;;;;5.79;62.48;100489.28;4907274;29;20328;-78
2022/03/27 01:23:12;;;;;;;18.33;14.10;;;;;;;5.71;63.92;100486.66;4911037;29;20655;-78
2022/03/27 01:25:41;;;;;;;19.47;14.33;;;;;;;5.69;64.07;100493.97;4912175;29;20238;-78
2022/03/27 01:28:11;;;;;;;20.43;13.93;;;;;;;5.66;64.79;100494.28;4910049;29;20248;-78
2022/03/27 01:30:38;;;;;;;20.67;13.63;;;;;;;5.66;65.63;100491.63;4909342;29;20237;-78
2022/03/27 01:33:05;;;;;;;19.43;13.90;;;;;;;5.66;65.83;100486.31;4911742;29;20322;-77
2022/03/27 01:35:32;;;;;;;22.20;14.63;;;;;;;5.64;66.38;100485.69;4911165;29;20610;-78
2022/03/27 01:37:59;;;;;;;21.00;14.93;;;;;;;5.67;66.67;100485.31;4911208;29;20790;-78
2022/03/27 01:40:26;;;;;;;18.80;14.10;;;;;;;5.68;67.18;100484.34;4910538;29;20724;-78
2022/03/27 01:42:55;;;;;;;22.13;15.07;;;;;;;5.70;66.88;100482.31;4907821;29;20740;-78
2022/03/27 01:45:22;;;;;;;21.17;14.90;;;;;;;5.78;67.31;100477.03;4910729;29;20325;-78
2022/03/27 01:47:50;;;;;;;19.60;15.47;;;;;;;5.88;67.13;100482.19;4910351;29;20243;-78
2022/03/27 01:50:17;;;;;;;20.83;15.40;;;;;;;5.96;66.41;100477.69;4908752;29;20273;-78
2022/03/27 01:52:44;;;;;;;21.17;15.13;;;;;;;5.99;66.58;100485.31;4908576;29;20266;-78
2022/03/27 01:55:13;;;;;;;21.77;14.43;;;;;;;6.09;66.59;100493.13;4911467;29;20297;-79
2022/03/27 01:57:42;;;;;;;19.03;15.47;;;;;;;6.18;66.41;100498.25;4911026;29;20234;-78
2022/03/27 02:00:09;;;;;;;21.47;15.47;;;;;;;6.28;65.89;100498.06;4912095;29;20248;-78
2022/03/27 02:02:39;;;;;;;20.97;15.20;;;;;;;6.46;65.40;100498.66;4909286;29;20675;-78
2022/03/27 02:05:07;;;;;;;19.17;15.07;;;;;;;6.54;64.81;100493.28;4911407;29;20250;-78
2022/03/27 02:07:37;;;;;;;24.50;15.63;;;;;;;6.55;65.45;100499.47;4908571;29;20660;-77
2022/03/27 02:10:05;;;;;;;20.70;14.57;;;;;;;6.67;64.74;100502.59;4914196;29;20238;-78
2022/03/27 02:12:34;;;;;;;21.90;15.10;;;;;;;6.70;64.42;100503.06;4913262;29;20318;-78
2022/03/27 02:15:04;;;;;;;24.87;16.23;;;;;;;6.83;64.27;100513.16;4908951;29;20249;-78
2022/03/27 02:17:31;;;;;;;22.53;15.50;;;;;;;6.85;64.79;100511.16;4913253;29;20276;-78
2022/03/27 02:20:05;;;;;;;19.33;14.43;;;;;;;6.97;63.72;100509.75;4914513;29;20297;-78
2022/03/27 02:22:32;;;;;;;18.93;15.43;;;;;;;7.08;63.85;100518.19;4910857;29;20328;-77
2022/03/27 02:24:59;;;;;;;22.20;15.53;;;;;;;7.21;63.63;100517.59;4914121;29;20656;-78
2022/03/27 02:27:26;;;;;;;21.23;15.63;;;;;;;7.33;62.63;100520.66;4906502;29;20241;-78
2022/03/27 02:29:53;;;;;;;19.57;15.47;;;;;;;7.33;62.26;100526.84;4913673;29;20320;-78
2022/03/27 02:32:19;;;;;;;21.23;15.17;;;;;;;7.67;61.72;100534.44;4913269;29;20257;-78
2022/03/27 02:34:46;;;;;;;19.90;15.47;;;;;;;7.50;61.56;100523.06;4913653;29;20235;-78
2022/03/27 02:37:13;;;;;;;20.30;14.83;;;;;;;7.44;62.57;100528.28;4908369;29;20260;-78
2022/03/27 02:39:41;;;;;;;19.43;15.37;;;;;;;7.32;62.53;100538.53;4911917;29;20694;-78
2022/03/27 02:42:07;;;;;;;19.67;16.20;;;;;;;7.25;62.40;100545.56;4912233;29;20273;-78
2022/03/27 02:44:34;;;;;;;20.47;15.50;;;;;;;7.20;62.72;100539.91;4911422;29;20659;-78
2022/03/27 02:47:01;;;;;;;17.60;14.67;;;;;;;7.26;63.05;100552.56;4910453;29;20307;-78
2022/03/27 02:49:28;;;;;;;21.47;15.80;;;;;;;7.20;63.66;100552.41;4916931;29;20770;-78
2022/03/27 02:51:55;;;;;;;20.53;15.00;;;;;;;7.22;63.53;100555.75;4909877;29;20239;-78
2022/03/27 02:54:22;;;;;;;20.57;15.63;;;;;;;7.17;64.52;100564.28;4910200;29;20246;-79
2022/03/27 02:56:48;;;;;;;23.40;14.77;;;;;;;7.22;65.01;100564.56;4911095;29;20334;-78
2022/03/27 02:59:16;;;;;;;21.07;16.10;;;;;;;7.28;64.59;100569.19;4913016;29;20289;-78
2022/03/27 03:01:43;;;;;;;18.13;14.90;;;;;;;7.11;64.80;100566.78;4909452;29;20324;-78
2022/03/27 03:04:11;;;;;;;19.73;16.10;;;;;;;7.30;63.67;100577.03;4912115;29;20250;-78
2022/03/27 03:06:37;;;;;;;24.93;16.33;;;;;;;7.39;62.83;100579.47;4909298;29;20298;-78
2022/03/27 03:09:04;;;;;;;22.83;17.07;;;;;;;7.45;62.33;100577.94;4907981;29;20695;-78
2022/03/27 03:11:31;;;;;;;22.03;17.50;;;;;;;8.02;62.19;100580.19;4916047;29;20624;-78
2022/03/27 03:13:58;;;;;;;25.43;17.67;;;;;;;7.82;64.19;100585.16;4912536;29;20816;-78
2022/03/27 03:16:49;;;;;;;24.00;17.07;;;;;;;7.97;64.04;100591.41;4910184;29;20229;-78
2022/03/27 03:19:16;;;;;;;22.53;17.63;;;;;;;7.65;65.80;100591.66;4911552;29;20754;-78
2022/03/27 03:21:43;;;;;;;21.20;16.93;;;;;;;7.44;66.48;100595.75;4918391;29;20789;-78
2022/03/27 03:24:10;;;;;;;21.93;17.73;;;;;;;7.32;67.57;100599.00;4915476;29;20754;-78
2022/03/27 03:26:37;;;;;;;20.57;17.17;;;;;;;7.17;68.59;100604.25;4914998;29;20242;-78
2022/03/27 03:29:04;;;;;;;21.23;17.40;;;;;;;7.06;68.92;100607.28;4912331;29;20238;-78
2022/03/27 03:31:31;;;;;;;23.17;17.70;;;;;;;7.01;69.31;100607.81;4913987;29;20254;-78
2022/03/27 03:33:58;;;;;;;22.07;17.00;;;;;;;7.03;70.12;100610.31;4913921;29;20238;-78
2022/03/27 03:36:24;;;;;;;21.30;16.63;;;;;;;6.99;70.01;100614.31;4916023;29;20664;-78
2022/03/27 03:38:51;;;;;;;22.90;16.83;;;;;;;6.87;70.85;100616.50;4917448;29;20282;-78
2022/03/27 03:41:18;;;;;;;21.83;16.97;;;;;;;6.83;71.81;100611.69;4914517;29;20254;-78
2022/03/27 03:43:46;;;;;;;21.97;16.27;;;;;;;7.03;71.64;100620.97;4914324;29;20245;-78
2022/03/27 03:46:13;;;;;;;24.70;15.33;;;;;;;7.12;72.03;100630.59;4910954;29;20251;-78
2022/03/27 03:48:40;;;;;;;20.97;15.30;;;;;;;6.85;72.83;100628.34;4914294;29;20234;-78
2022/03/27 03:51:07;;;;;;;21.90;15.43;;;;;;;6.69;75.24;100631.06;4912724;29;20748;-78
2022/03/27 03:53:34;;;;;;;18.37;14.37;;;;;;;6.59;75.95;100625.91;4919191;29;20242;-78
2022/03/27 03:56:00;;;;;;;18.60;14.20;;;;;;;6.52;78.23;100639.09;4910695;29;20266;-79
2022/03/27 03:58:27;;;;;;;21.53;14.53;;;;;;;6.35;79.16;100632.09;4913500;29;20288;-79
2022/03/27 04:00:54;;;;;;;17.07;13.43;;;;;;;6.28;80.98;100627.63;4913551;29;20244;-78
2022/03/27 04:03:21;;;;;;;18.43;13.40;;;;;;;6.24;83.16;100632.47;4913181;29;20672;-77
2022/03/27 04:05:48;;;;;;;17.67;13.20;;;;;;;6.14;84.06;100637.13;4914344;29;20244;-78
2022/03/27 04:08:14;;;;;;;17.80;12.37;;;;;;;6.10;84.80;100641.94;4910196;29;20234;-78
2022/03/27 04:10:42;;;;;;;17.70;13.67;;;;;;;6.02;85.99;100649.09;4914890;29;20737;-78
2022/03/27 04:13:09;;;;;;;15.17;12.97;;;;;;;5.95;87.51;100648.91;4911443;29;20333;-78
2022/03/27 04:15:37;;;;;;;17.30;12.73;;;;;;;5.95;89.06;100658.72;4915241;29;20317;-78
2022/03/27 04:18:21;;;;;;;17.07;13.20;;;;;;;5.90;90.68;100658.38;4913027;29;20325;-78
2022/03/27 04:20:48;;;;;;;17.67;13.20;;;;;;;5.84;91.30;100659.00;4910605;29;20278;-78
2022/03/27 04:23:15;;;;;;;17.17;13.27;;;;;;;5.74;92.09;100667.97;4913710;29;20239;-78
2022/03/27 04:25:42;;;;;;;18.13;12.93;;;;;;;5.69;94.04;100664.94;4911126;29;20262;-78
2022/03/27 04:28:10;;;;;;;19.13;12.63;;;;;;;5.78;97.21;100670.31;4912636;29;20290;-78
2022/03/27 04:30:40;;;;;;;18.30;12.70;;;;;;;5.73;97.31;100668.97;4917167;29;20694;-79
2022/03/27 04:33:08;;;;;;;16.70;12.63;;;;;;;5.73;97.97;100670.81;4915347;29;20242;-78
2022/03/27 04:35:35;;;;;;;15.17;13.17;;;;;;;5.62;98.46;100673.75;4910103;29;20243;-78
2022/03/27 04:38:02;;;;;;;17.03;13.17;;;;;;;5.56;98.48;100677.03;4907115;29;20267;-78
2022/03/27 04:40:29;;;;;;;18.53;13.97;;;;;;;5.52;98.61;100683.69;4914719;29;20325;-78
2022/03/27 04:42:56;;;;;;;16.47;12.37;;;;;;;5.45;98.85;100677.38;4912822;29;20337;-78
2022/03/27 04:45:23;;;;;;;16.87;13.30;;;;;;;5.41;98.59;100681.34;4908620;29;20268;-78
2022/03/27 04:47:50;;;;;;;15.30;12.97;;;;;;;5.33;99.31;100682.13;4912707;29;20330;-78
2022/03/27 04:50:16;;;;;;;14.70;12.67;;;;;;;5.29;99.39;100691.41;4915565;29;20258;-78
2022/03/27 04:52:43;;;;;;;18.70;13.20;;;;;;;5.25;100.00;100690.06;4914184;29;20601;-78
2022/03/27 04:55:10;;;;;;;16.30;13.57;;;;;;;5.18;100.00;100684.56;4915489;29;20265;-78
2022/03/27 04:57:41;;;;;;;17.13;13.60;;;;;;;5.16;100.00;100697.19;4911307;29;20316;-78
2022/03/27 05:00:10;;;;;;;19.07;13.60;;;;;;;5.11;100.00;100694.16;4906488;29;20656;-78
2022/03/27 05:02:38;;;;;;;27.60;24.67;;;;;;;5.05;100.00;100692.13;4909602;29;20229;-78
2022/03/27 05:05:06;;;;;;;65.90;57.40;;;;;;;5.02;100.00;100692.47;4908989;29;20227;-78
2022/03/27 05:07:35;;;;;;;30.07;25.60;;;;;;;5.03;100.00;100701.25;4914157;29;20785;-78
2022/03/27 05:10:03;;;;;;;20.97;17.07;;;;;;;5.02;100.00;100704.91;4911265;29;20322;-78
2022/03/27 05:12:30;;;;;;;22.27;17.40;;;;;;;5.02;100.00;100704.91;4911525;29;20325;-78
2022/03/27 05:14:57;;;;;;;33.03;24.97;;;;;;;5.04;100.00;100708.25;4912157;29;20270;-78
2022/03/27 05:17:28;;;;;;;31.33;23.53;;;;;;;5.07;100.00;100711.41;4909198;29;20246;-78
2022/03/27 05:19:55;;;;;;;35.10;26.93;;;;;;;5.10;100.00;100708.44;4907975;29;20321;-78
2022/03/27 05:22:21;;;;;;;46.03;33.10;;;;;;;5.15;100.00;100714.09;4913011;29;20716;-79
2022/03/27 05:24:48;;;;;;;37.00;31.93;;;;;;;5.21;100.00;100712.66;4914228;29;20234;-79
2022/03/27 05:27:18;;;;;;;33.23;29.23;;;;;;;5.28;100.00;100718.97;4916239;29;20241;-78
2022/03/27 05:29:45;;;;;;;29.40;25.40;;;;;;;5.35;100.00;100724.50;4915596;29;20245;-78
2022/03/27 05:32:13;;;;;;;20.50;16.00;;;;;;;5.48;100.00;100727.53;4915525;29;20262;-79
2022/03/27 05:34:40;;;;;;;32.10;29.10;;;;;;;5.56;100.00;100731.06;4912393;29;20721;-79
2022/03/27 05:37:07;;;;;;;32.90;29.57;;;;;;;5.65;100.00;100727.44;4913056;29;20619;-79
2022/03/27 05:39:34;;;;;;;23.90;21.50;;;;;;;5.77;100.00;100730.63;4916743;29;20233;-78
2022/03/27 05:42:00;;;;;;;20.73;18.57;;;;;;;5.90;100.00;100736.34;4917052;29;20333;-77
2022/03/27 05:44:27;;;;;;;20.03;17.93;;;;;;;6.04;100.00;100742.88;4916778;29;20229;-78
2022/03/27 05:46:54;;;;;;;20.23;17.73;;;;;;;6.14;100.00;100741.72;4911355;29;20237;-78
2022/03/27 05:49:21;;;;;;;18.87;16.87;;;;;;;6.17;99.85;100744.03;4912216;29;20635;-78
2022/03/27 05:51:47;;;;;;;20.77;16.93;;;;;;;6.30;99.03;100754.19;4907687;29;20238;-77
2022/03/27 05:54:14;;;;;;;15.47;13.43;;;;;;;6.39;98.58;100750.53;4909511;29;20702;-79
2022/03/27 05:56:41;;;;;;;15.73;13.57;;;;;;;6.49;97.75;100758.38;4911616;29;20644;-77
2022/03/27 05:59:08;;;;;;;18.37;14.80;;;;;;;6.62;97.22;100756.06;4904522;29;20239;-78
2022/03/27 06:01:35;;;;;;;17.90;14.17;;;;;;;6.81;96.01;100760.22;4910199;29;20293;-78
2022/03/27 06:04:02;;;;;;;16.57;13.60;;;;;;;6.97;94.93;100755.69;4907803;29;20282;-78
2022/03/27 06:06:29;;;;;;;17.60;13.17;;;;;;;7.15;93.49;100760.81;4915429;29;20694;-78
2022/03/27 06:08:57;;;;;;;16.50;13.30;;;;;;;7.34;91.43;100764.94;4909036;29;20230;-78
2022/03/27 06:11:24;;;;;;;16.50;12.40;;;;;;;7.50;91.16;100760.41;4910116;29;20291;-78
2022/03/27 06:13:51;;;;;;;15.17;10.83;;;;;;;7.75;91.09;100762.94;4913664;29;20282;-78
2022/03/27 06:16:18;;;;;;;12.80;10.00;;;;;;;7.98;90.56;100763.81;4915374;29;20651;-78
2022/03/27 06:18:44;;;;;;;11.83;9.93;;;;;;;8.22;88.20;100768.19;4910293;29;20729;-78
2022/03/27 06:21:11;;;;;;;13.33;9.57;;;;;;;8.50;86.13;100766.69;4905393;29;20231;-78
2022/03/27 06:23:38;;;;;;;9.73;8.73;;;;;;;8.77;83.99;100774.16;4912310;29;20238;-78
2022/03/27 06:26:06;;;;;;;11.03;9.10;;;;;;;9.03;79.59;100771.09;4904825;29;20658;-78
2022/03/27 06:28:33;;;;;;;10.30;8.30;;;;;;;9.40;77.16;100772.03;4912126;29;20270;-78
2022/03/27 06:31:00;;;;;;;11.03;8.67;;;;;;;9.68;73.66;100773.03;4912528;29;20256;-78
2022/03/27 06:33:27;;;;;;;10.20;8.03;;;;;;;9.79;73.04;100779.78;4910058;29;20243;-78
2022/03/27 06:35:54;;;;;;;10.60;7.77;;;;;;;9.93;70.56;100770.88;4905132;29;20288;-78
2022/03/27 06:38:21;;;;;;;9.37;7.70;;;;;;;10.05;69.26;100772.88;4905702;29;20246;-78
2022/03/27 06:40:47;;;;;;;9.97;7.97;;;;;;;10.22;68.49;100772.69;4907350;29;20249;-78
2022/03/27 06:43:14;;;;;;;10.13;8.00;;;;;;;10.23;68.12;100771.66;4905067;29;20238;-78
2022/03/27 06:45:41;;;;;;;9.93;8.07;;;;;;;10.35;67.62;100773.66;4911980;29;20304;-78
2022/03/27 06:48:08;;;;;;;8.40;7.40;;;;;;;10.54;66.06;100770.34;4909792;29;20607;-77
2022/03/27 06:50:35;;;;;;;9.30;8.10;;;;;;;10.81;65.07;100771.41;4914584;29;20238;-78
2022/03/27 06:53:01;;;;;;;8.13;7.33;;;;;;;11.13;63.18;100769.19;4908631;29;20249;-78
2022/03/27 06:55:29;;;;;;;8.43;7.40;;;;;;;11.51;62.18;100780.38;4914770;29;20265;-78
2022/03/27 06:57:55;;;;;;;9.23;7.93;;;;;;;11.63;62.11;100773.41;4914736;29;20328;-79
2022/03/27 07:03:11;;;;;;;8.80;7.83;;;;;;;11.69;61.23;100778.81;4907846;29;20987;-78
2022/03/27 07:05:41;;;;;;;9.17;8.10;;;;;;;11.68;61.61;100779.84;4908549;29;20233;-77
2022/03/27 07:08:12;;;;;;;9.97;8.53;;;;;;;11.70;61.67;100771.59;4911791;29;20324;-78
2022/03/27 07:10:39;;;;;;;8.60;7.57;;;;;;;11.98;61.29;100782.28;4908863;29;20328;-78
2022/03/27 07:13:08;;;;;;;11.83;9.23;;;;;;;12.11;61.28;100776.94;4907868;29;20750;-78
2022/03/27 07:15:36;;;;;;;12.90;10.20;;;;;;;12.10;60.53;100776.13;4908755;29;20649;-78
2022/03/27 07:18:03;;;;;;;10.50;9.50;;;;;;;12.11;61.32;100783.16;4909319;29;20793;-79
2022/03/27 07:20:32;;;;;;;11.37;9.27;;;;;;;12.30;60.35;100790.47;4911718;29;20678;-79
2022/03/27 07:23:06;;;;;;;10.43;9.33;;;;;;;12.18;60.15;100791.22;4908260;29;20725;-78
2022/03/27 07:25:35;;;;;;;10.93;9.03;;;;;;;12.39;57.09;100788.41;4913230;29;20266;-78
2022/03/27 07:28:03;;;;;;;9.57;8.57;;;;;;;12.48;56.62;100792.56;4912197;29;20246;-77
2022/03/27 07:30:30;;;;;;;10.13;8.30;;;;;;;12.75;54.77;100786.19;4909117;29;20242;-78
2022/03/27 07:32:57;;;;;;;9.93;8.57;;;;;;;12.75;54.41;100790.72;4910161;29;20234;-78
2022/03/27 07:35:27;;;;;;;8.90;8.00;;;;;;;12.61;53.88;100800.63;4913983;29;20235;-78
2022/03/27 07:37:54;;;;;;;8.60;7.70;;;;;;;12.47;53.38;100795.44;4909684;29;20293;-78
2022/03/27 07:40:20;;;;;;;8.63;7.77;;;;;;;12.28;54.04;100797.88;4904342;29;20333;-78
2022/03/27 07:42:50;;;;;;;8.97;7.27;;;;;;;12.35;53.52;100797.91;4907506;29;20234;-78
2022/03/27 07:45:19;;;;;;;8.17;7.37;;;;;;;12.67;52.62;100807.06;4904191;29;20294;-78
2022/03/27 07:47:46;;;;;;;8.27;7.43;;;;;;;12.61;51.82;100805.19;4903955;29;20234;-79
2022/03/27 07:50:14;;;;;;;11.40;7.73;;;;;;;12.72;52.28;100809.97;4903073;29;20246;-78
2022/03/27 07:52:40;;;;;;;9.43;8.10;;;;;;;13.03;51.41;100801.28;4909360;29;20246;-78
2022/03/27 07:55:09;;;;;;;9.13;8.00;;;;;;;13.32;50.92;100808.13;4906013;29;20278;-78
2022/03/27 07:57:36;;;;;;;10.47;8.23;;;;;;;12.96;50.80;100800.47;4909480;29;20256;-78
2022/03/27 08:00:03;;;;;;;10.90;8.97;;;;;;;13.47;49.94;100803.38;4898981;29;20281;-78
2022/03/27 08:02:38;;;;;;;8.20;7.33;;;;;;;13.53;49.55;100800.63;4905031;29;20318;-79
2022/03/27 08:05:07;;;;;;;8.60;7.70;;;;;;;13.91;49.10;100794.53;4892469;29;20245;-78
2022/03/27 08:07:34;;;;;;;8.00;7.20;;;;;;;14.28;48.07;100790.19;4902593;29;20249;-78
2022/03/27 08:10:01;;;;;;;8.50;7.20;;;;;;;14.27;46.71;100789.41;4907325;29;20277;-78
2022/03/27 08:12:28;;;;;;;9.23;7.77;;;;;;;13.92;46.53;100788.94;4903241;29;20259;-78
2022/03/27 08:14:54;;;;;;;8.47;6.93;;;;;;;13.95;46.93;100785.81;4901147;29;20773;-78
2022/03/27 08:17:21;;;;;;;9.60;7.97;;;;;;;14.14;46.89;100783.25;4897018;29;20325;-78
2022/03/27 08:19:49;;;;;;;8.50;7.60;;;;;;;13.65;47.04;100787.38;4897415;29;20318;-78
2022/03/27 08:22:16;;;;;;;9.83;7.17;;;;;;;13.17;47.51;100786.81;4904589;29;20241;-78
2022/03/27 08:24:43;;;;;;;8.17;7.30;;;;;;;13.41;47.20;100790.72;4910141;29;20750;-78
2022/03/27 08:27:10;;;;;;;8.53;7.63;;;;;;;13.23;47.92;100794.06;4902393;29;20234;-78
2022/03/27 08:29:39;;;;;;;9.10;8.20;;;;;;;13.23;48.35;100789.53;4916393;29;20284;-78
2022/03/27 08:32:08;;;;;;;10.40;8.17;;;;;;;13.25;48.54;100788.50;4904360;29;20230;-78
2022/03/27 08:34:36;;;;;;;9.10;8.20;;;;;;;12.91;49.04;100782.25;4896746;29;20257;-78
2022/03/27 08:37:05;;;;;;;9.37;7.93;;;;;;;12.75;49.81;100783.50;4910283;29;20490;-78
2022/03/27 08:39:32;;;;;;;9.53;7.93;;;;;;;13.21;48.93;100788.06;4898520;29;20571;-79
2022/03/27 08:41:59;;;;;;;10.93;8.10;;;;;;;13.68;47.92;100790.47;4901530;29;20289;-78
2022/03/27 08:44:28;;;;;;;10.50;9.47;;;;;;;13.14;49.14;100779.19;4901894;29;20242;-78
2022/03/27 08:46:56;;;;;;;9.33;8.27;;;;;;;13.09;49.85;100779.78;4903492;29;20336;-78
2022/03/27 08:49:26;;;;;;;10.47;8.90;;;;;;;12.90;49.88;100787.84;4917768;29;20230;-78
2022/03/27 08:51:52;;;;;;;9.30;8.40;;;;;;;13.61;48.73;100791.53;4913746;29;20654;-78
2022/03/27 08:54:24;;;;;;;10.40;8.67;;;;;;;13.16;49.15;100799.44;4902588;29;20331;-78
2022/03/27 08:57:06;;;;;;;10.27;9.17;;;;;;;13.13;50.04;100799.03;4897676;29;20226;-78
2022/03/27 08:59:33;;;;;;;10.10;9.00;;;;;;;13.68;48.05;100797.72;4905469;29;20230;-78
2022/03/27 09:02:00;;;;;;;10.57;9.30;;;;;;;13.88;48.51;100800.34;4903923;29;20231;-78
2022/03/27 09:04:27;;;;;;;10.10;9.10;;;;;;;14.39;46.67;100803.03;4902093;29;20258;-78
2022/03/27 09:06:53;;;;;;;10.70;8.53;;;;;;;14.64;46.17;100800.41;4900585;29;20606;-79
2022/03/27 09:09:20;;;;;;;9.80;8.80;;;;;;;13.97;47.03;100802.59;4911450;29;20791;-79
2022/03/27 09:11:47;;;;;;;10.17;8.90;;;;;;;13.48;48.29;100808.56;4906648;29;20317;-78
2022/03/27 09:14:16;;;;;;;10.50;9.17;;;;;;;14.05;48.36;100796.94;4906606;29;20237;-78
2022/03/27 09:17:04;;;;;;;11.77;9.63;;;;;;;14.18;47.16;100795.25;4910019;29;20639;-78
2022/03/27 09:19:32;;;;;;;10.60;9.50;;;;;;;14.17;48.12;100798.97;4912936;29;20234;-78
2022/03/27 09:21:59;;;;;;;10.87;9.70;;;;;;;14.40;46.61;100802.84;4900531;29;20322;-78
2022/03/27 09:24:35;;;;;;;10.63;8.73;;;;;;;14.58;46.05;100802.09;4900325;29;20235;-78
2022/03/27 09:27:02;;;;;;;11.33;9.83;;;;;;;14.58;46.36;100799.41;4895149;29;20226;-77
2022/03/27 09:29:28;;;;;;;11.07;9.97;;;;;;;14.87;45.31;100800.66;4893850;29;20235;-78
2022/03/27 09:31:58;;;;;;;10.50;9.17;;;;;;;15.07;45.48;100798.59;4895845;29;20322;-78
2022/03/27 09:34:25;;;;;;;11.93;9.93;;;;;;;14.59;46.47;100809.16;4898637;29;20230;-78
2022/03/27 09:36:52;;;;;;;11.20;9.73;;;;;;;14.94;46.06;100801.41;4894778;29;20243;-78
2022/03/27 09:39:20;;;;;;;12.23;10.03;;;;;;;14.75;45.67;100800.53;4899277;29;20270;-78
2022/03/27 09:41:53;;;;;;;11.23;9.70;;;;;;;15.12;45.59;100785.28;4916473;29;21602;-78
2022/03/27 09:44:28;;;;;;;11.57;10.47;;;;;;;14.84;45.70;100796.50;4911921;29;20690;-78
2022/03/27 09:47:04;;;;;;;18.77;10.77;;;;;;;15.02;46.09;100793.06;4896257;29;20337;-78
2022/03/27 09:49:31;;;;;;;10.30;9.30;;;;;;;15.49;44.53;100796.16;4911522;29;20668;-78
2022/03/27 09:52:05;;;;;;;10.70;9.60;;;;;;;15.34;44.95;100800.03;4904604;29;20686;-78
2022/03/27 09:54:59;;;;;;;10.80;9.70;;;;;;;15.08;44.57;100794.88;4914420;29;20238;-78
2022/03/27 09:57:42;;;;;;;12.10;10.90;;;;;;;15.62;44.13;100796.88;4902678;29;20227;-78
2022/03/27 10:00:13;;;;;;;11.47;10.33;;;;;;;14.75;45.34;100795.13;4906948;29;20313;-78
2022/03/27 10:02:41;;;;;;;11.17;10.00;;;;;;;15.88;43.75;100793.03;4912411;29;20301;-78
2022/03/27 10:05:09;;;;;;;10.57;9.57;;;;;;;16.06;43.31;100784.09;4906627;29;20226;-78
2022/03/27 10:07:41;;;;;;;12.03;10.83;;;;;;;15.90;42.43;100784.72;4901216;29;20246;-78
2022/03/27 10:10:16;;;;;;;11.80;10.60;;;;;;;16.30;42.70;100796.66;4902350;29;20235;-78
2022/03/27 10:12:46;;;;;;;11.17;10.03;;;;;;;15.53;43.61;100779.31;4911255;29;20234;-78
2022/03/27 10:15:22;;;;;;;11.40;10.20;;;;;;;15.06;44.92;100778.09;4900440;29;20239;-78
2022/03/27 10:17:53;;;;;;;11.80;10.27;;;;;;;15.28;44.48;100789.28;4911440;29;20320;-78
2022/03/27 10:20:23;;;;;;;12.33;10.67;;;;;;;15.04;44.87;100780.16;4912732;29;21705;-78
2022/03/27 10:22:53;;;;;;;11.60;10.40;;;;;;;14.83;45.45;100773.28;4910998;29;20322;-78
2022/03/27 10:25:21;;;;;;;12.17;10.87;;;;;;;15.16;45.42;100772.19;4912194;29;20262;-78
2022/03/27 10:27:48;;;;;;;12.73;10.47;;;;;;;15.11;45.63;100770.16;4907725;29;20320;-78
2022/03/27 10:30:16;;;;;;;11.50;10.30;;;;;;;14.80;46.20;100770.19;4909206;29;20245;-78
2022/03/27 10:32:44;;;;;;;10.53;9.50;;;;;;;15.39;45.42;100770.50;4913349;29;20268;-78
2022/03/27 10:35:14;;;;;;;11.00;9.90;;;;;;;15.82;44.36;100761.50;4914717;29;20261;-78
2022/03/27 10:37:42;;;;;;;10.77;9.77;;;;;;;15.81;44.58;100760.72;4909748;29;21619;-78
2022/03/27 10:40:27;;;;;;;10.93;9.83;;;;;;;15.57;45.73;100747.28;4892119;29;20230;-78
2022/03/27 10:43:01;;;;;;;11.67;9.57;;;;;;;15.62;45.45;100750.97;4904371;29;20230;-78
2022/03/27 10:45:27;;;;;;;11.73;10.53;;;;;;;15.44;45.59;100751.72;4889955;29;20717;-78
2022/03/27 10:48:13;;;;;;;11.30;10.20;;;;;;;15.50;45.48;100739.22;4888828;29;20710;-78
2022/03/27 10:50:44;;;;;;;13.07;11.00;;;;;;;14.71;47.11;100741.84;4888002;29;20239;-78
2022/03/27 10:53:11;;;;;;;11.87;10.67;;;;;;;14.78;47.43;100739.94;4888382;29;20235;-78
2022/03/27 10:55:46;;;;;;;12.27;10.97;;;;;;;14.61;48.36;100745.00;4901748;29;20271;-78
2022/03/27 10:58:35;;;;;;;12.57;11.27;;;;;;;14.62;48.16;100743.16;4893978;29;20238;-78
2022/03/27 11:01:04;;;;;;;12.30;11.10;;;;;;;14.67;48.73;100736.06;4895796;29;20242;-78
2022/03/27 11:03:51;;;;;;;13.43;11.10;;;;;;;14.67;48.59;100733.38;4897688;29;20665;-78
2022/03/27 11:06:31;;;;;;;12.27;10.97;;;;;;;14.80;48.38;100724.31;4892894;29;20334;-78
2022/03/27 11:09:01;;;;;;;12.13;10.93;;;;;;;14.81;48.80;100723.28;4896554;29;20230;-78
2022/03/27 11:11:38;;;;;;;11.77;10.57;;;;;;;15.01;47.63;100723.13;4893578;29;20233;-78
2022/03/27 11:14:06;;;;;;;10.83;9.73;;;;;;;14.81;48.58;100713.31;4890881;29;20223;-78
2022/03/27 11:16:36;;;;;;;12.13;10.93;;;;;;;14.81;48.42;100715.19;4894929;29;20338;-78
2022/03/27 11:19:04;;;;;;;13.07;11.77;;;;;;;14.93;48.68;100713.44;4896858;29;20761;-78
2022/03/27 11:21:30;;;;;;;13.03;11.63;;;;;;;14.94;48.32;100710.50;4895453;29;20247;-78
2022/03/27 11:24:00;;;;;;;13.57;12.17;;;;;;;15.24;47.56;100707.09;4902884;29;20242;-78
2022/03/27 11:26:27;;;;;;;11.53;10.43;;;;;;;15.33;47.06;100703.88;4906468;29;20249;-78